Time;durP1;ratioP1;P1;durP2;ratioP2;P2;SDS_P1;SDS_P2;PMS_P1;PMS_P2;Temp;Humidity;BMP_temperature;BMP_pressure;BME280_temperature;BME280_humidity;BME280_pressure;Samples;Min_cycle;Max_cycle;Signal;HPM_P1;HPM_P2
2021/01/06 00:00:19;;;;;;;25.67;16.43;;;;;;;5.18;100.00;97248.16;5072393;28;20212;-69
2021/01/06 00:02:45;;;;;;;26.63;17.17;;;;;;;5.02;100.00;97247.03;5072531;28;20292;-69
2021/01/06 00:05:18;;;;;;;26.80;17.00;;;;;;;4.96;100.00;97234.69;5071993;28;20232;-70
2021/01/06 00:07:47;;;;;;;25.20;16.33;;;;;;;4.98;100.00;97241.41;5072252;28;20792;-70
2021/01/06 00:10:18;;;;;;;28.37;18.03;;;;;;;5.02;100.00;97239.66;5072524;28;20249;-70
2021/01/06 00:12:44;;;;;;;23.40;16.53;;;;;;;5.07;100.00;97239.47;5071169;28;20205;-69
2021/01/06 00:15:25;;;;;;;27.03;17.10;;;;;;;5.13;100.00;97238.19;5071383;28;20236;-70
2021/01/06 00:17:51;;;;;;;25.13;17.10;;;;;;;5.05;100.00;97238.22;5071847;28;20730;-70
2021/01/06 00:20:23;;;;;;;25.40;16.97;;;;;;;5.05;100.00;97236.25;5071920;28;20243;-69
2021/01/06 00:22:49;;;;;;;25.10;16.80;;;;;;;5.04;100.00;97239.31;5091428;28;20265;-69
2021/01/06 00:25:22;;;;;;;24.33;16.27;;;;;;;4.97;100.00;97236.28;5091323;28;20204;-68
2021/01/06 00:27:48;;;;;;;23.77;16.17;;;;;;;4.97;100.00;97236.28;5091738;28;20783;-69
2021/01/06 00:30:42;;;;;;;25.40;16.73;;;;;;;5.06;100.00;97231.59;5091887;28;20240;-68
2021/01/06 00:33:12;;;;;;;25.80;16.10;;;;;;;5.15;100.00;97229.66;5091693;28;20247;-69
2021/01/06 00:35:38;;;;;;;26.13;16.30;;;;;;;5.11;100.00;97236.91;5090950;28;20274;-68
2021/01/06 00:38:04;;;;;;;24.00;16.07;;;;;;;5.07;100.00;97233.22;5091619;28;20299;-69
2021/01/06 00:40:33;;;;;;;26.60;16.23;;;;;;;5.06;100.00;97237.88;5091852;28;20209;-69
2021/01/06 00:43:07;;;;;;;22.73;15.17;;;;;;;5.14;100.00;97239.00;5091240;28;20677;-69
2021/01/06 00:45:34;;;;;;;22.90;15.60;;;;;;;5.08;100.00;97237.56;5089976;28;20288;-68
2021/01/06 00:48:03;;;;;;;26.83;16.93;;;;;;;5.09;100.00;97241.91;5091429;28;20256;-69
2021/01/06 00:50:29;;;;;;;24.33;15.87;;;;;;;4.94;100.00;97239.66;5091943;28;20262;-68
2021/01/06 00:53:00;;;;;;;21.77;15.53;;;;;;;4.93;100.00;97232.56;5091609;28;20295;-68
2021/01/06 00:55:27;;;;;;;27.27;16.90;;;;;;;5.00;100.00;97235.63;5089803;28;20228;-68
2021/01/06 00:57:54;;;;;;;23.37;15.70;;;;;;;5.09;100.00;97237.22;5091464;28;20781;-68
2021/01/06 01:34:05;;;;;;;23.90;15.40;;;;;;;5.01;100.00;97227.13;5107968;27;20487;-69
2021/01/06 01:36:31;;;;;;;23.97;16.17;;;;;;;4.96;100.00;97234.69;5108103;28;20280;-68
2021/01/06 01:38:57;;;;;;;23.13;15.40;;;;;;;4.92;100.00;97225.50;5107633;28;20252;-68
2021/01/06 01:41:26;;;;;;;23.33;15.70;;;;;;;4.93;100.00;97227.91;5109097;27;20294;-69
2021/01/06 01:43:53;;;;;;;23.87;15.70;;;;;;;4.66;100.00;97222.78;5108489;28;20203;-68
2021/01/06 01:46:45;;;;;;;23.23;15.07;;;;;;;4.55;100.00;97217.97;5107128;28;20239;-69
2021/01/06 01:49:28;;;;;;;22.53;14.83;;;;;;;4.91;100.00;97221.16;5108649;28;20283;-69
2021/01/06 01:52:06;;;;;;;22.13;15.63;;;;;;;4.96;100.00;97216.31;5108277;28;20208;-69
2021/01/06 01:54:33;;;;;;;20.57;15.23;;;;;;;5.00;100.00;97221.94;5107936;28;20199;-69
2021/01/06 01:57:05;;;;;;;22.03;14.90;;;;;;;5.00;100.00;97216.47;5107497;28;20220;-69
2021/01/06 01:59:41;;;;;;;22.83;14.63;;;;;;;4.95;100.00;97216.66;5108163;28;20687;-68
2021/01/06 02:02:36;;;;;;;23.87;15.30;;;;;;;4.99;100.00;97214.88;5107842;28;20229;-68
2021/01/06 02:05:09;;;;;;;22.53;15.33;;;;;;;4.95;100.00;97213.91;5107022;28;20244;-69
2021/01/06 02:07:49;;;;;;;20.03;14.30;;;;;;;4.93;100.00;97207.97;5107537;28;20223;-68
2021/01/06 02:10:25;;;;;;;21.93;14.80;;;;;;;4.74;100.00;97207.53;5108283;28;20232;-68
2021/01/06 02:13:02;;;;;;;22.73;15.07;;;;;;;4.73;100.00;97205.91;5087432;28;20216;-68
2021/01/06 02:15:51;;;;;;;21.93;15.03;;;;;;;4.88;100.00;97208.16;5087120;28;20300;-68
2021/01/06 02:18:17;;;;;;;22.97;14.63;;;;;;;4.86;100.00;97207.66;5086873;28;20251;-68
2021/01/06 02:21:09;;;;;;;22.97;15.07;;;;;;;4.91;100.00;97208.31;5090095;28;20232;-68
2021/01/06 02:23:36;;;;;;;24.83;14.87;;;;;;;4.85;100.00;97209.59;5106398;28;20279;-68
2021/01/06 02:26:04;;;;;;;20.70;14.83;;;;;;;4.95;100.00;97208.47;5107050;28;20249;-68
2021/01/06 02:28:30;;;;;;;20.10;13.87;;;;;;;4.91;100.00;97204.75;5108094;28;20295;-68
2021/01/06 02:30:56;;;;;;;20.10;14.17;;;;;;;4.83;100.00;97200.94;5108018;28;20251;-68
2021/01/06 02:33:24;;;;;;;21.33;14.87;;;;;;;4.86;100.00;97202.19;5106251;28;20269;-69
2021/01/06 02:35:52;;;;;;;23.30;15.20;;;;;;;4.83;100.00;97194.66;5107005;28;20243;-68
2021/01/06 02:38:20;;;;;;;24.13;15.63;;;;;;;4.69;100.00;97196.78;5107633;28;20285;-68
2021/01/06 02:40:47;;;;;;;22.17;14.70;;;;;;;4.78;100.00;97209.28;5107304;28;20208;-68
2021/01/06 02:43:13;;;;;;;22.00;13.90;;;;;;;4.80;100.00;97201.56;5105436;28;20676;-70
2021/01/06 02:45:39;;;;;;;23.87;15.00;;;;;;;4.85;100.00;97197.88;5092916;28;20236;-70
2021/01/06 02:48:06;;;;;;;21.57;14.57;;;;;;;4.79;100.00;97201.88;5093494;28;20228;-69
2021/01/06 02:50:35;;;;;;;22.57;14.87;;;;;;;4.78;100.00;97201.06;5085858;28;20291;-70
2021/01/06 02:53:06;;;;;;;18.43;13.47;;;;;;;4.73;100.00;97200.44;5071104;28;20737;-69
2021/01/06 02:55:37;;;;;;;20.60;14.77;;;;;;;4.69;100.00;97199.50;5072496;28;20262;-68
2021/01/06 02:58:17;;;;;;;22.20;14.50;;;;;;;4.77;100.00;97195.94;5071462;28;20229;-68
2021/01/06 03:00:43;;;;;;;19.77;13.90;;;;;;;4.73;100.00;97189.50;5073308;28;20204;-68
2021/01/06 03:03:12;;;;;;;19.97;13.87;;;;;;;4.80;100.00;97198.03;5072692;28;20296;-69
2021/01/06 03:05:41;;;;;;;20.47;13.57;;;;;;;4.76;100.00;97200.59;5072361;28;20296;-68
2021/01/06 03:08:10;;;;;;;20.27;13.87;;;;;;;4.75;100.00;97200.91;5072845;28;20233;-68
2021/01/06 03:10:37;;;;;;;20.70;13.17;;;;;;;4.79;100.00;97194.50;5075409;28;20205;-68
2021/01/06 03:13:03;;;;;;;20.33;13.77;;;;;;;4.82;100.00;97193.84;5092871;28;20596;-69
2021/01/06 03:15:30;;;;;;;18.90;13.30;;;;;;;4.84;100.00;97193.53;5092747;28;20204;-68
2021/01/06 03:18:00;;;;;;;20.37;12.97;;;;;;;4.93;100.00;97194.31;5093162;28;20212;-69
2021/01/06 03:20:33;;;;;;;22.13;13.17;;;;;;;4.89;100.00;97183.22;5093363;28;20296;-69
2021/01/06 03:23:06;;;;;;;20.03;12.90;;;;;;;4.92;100.00;97188.06;5092940;28;20287;-68
2021/01/06 03:25:34;;;;;;;19.63;12.90;;;;;;;4.90;100.00;97184.03;5092869;28;20301;-68
2021/01/06 03:28:00;;;;;;;21.50;13.20;;;;;;;4.89;100.00;97185.94;5092910;28;20259;-69
2021/01/06 03:30:30;;;;;;;17.07;12.17;;;;;;;4.69;100.00;97189.34;5091930;28;20258;-68
2021/01/06 03:33:09;;;;;;;17.10;12.13;;;;;;;4.59;100.00;97194.34;5093573;28;20319;-69
2021/01/06 03:35:41;;;;;;;19.83;12.70;;;;;;;4.71;100.00;97189.84;5093447;28;20295;-68
2021/01/06 03:38:15;;;;;;;19.17;12.47;;;;;;;4.70;100.00;97190.97;5093532;28;20228;-69
2021/01/06 03:40:47;;;;;;;18.27;12.77;;;;;;;4.72;100.00;97182.44;5093893;28;20254;-68
2021/01/06 03:43:17;;;;;;;17.37;11.97;;;;;;;4.76;100.00;97183.41;5092693;28;20227;-69
2021/01/06 03:45:47;;;;;;;18.83;12.17;;;;;;;4.78;100.00;97181.94;5093060;28;20303;-69
2021/01/06 03:48:22;;;;;;;17.17;11.83;;;;;;;4.82;100.00;97179.38;5092979;28;20215;-68
2021/01/06 03:50:52;;;;;;;17.93;11.43;;;;;;;4.84;100.00;97174.38;5092651;28;20205;-68
2021/01/06 03:53:34;;;;;;;17.37;11.53;;;;;;;4.83;100.00;97175.53;5091909;28;20319;-68
2021/01/06 03:56:27;;;;;;;15.17;10.70;;;;;;;4.81;100.00;97175.84;5090408;28;20215;-68
2021/01/06 03:59:22;;;;;;;17.73;12.47;;;;;;;4.68;100.00;97176.00;5091593;28;20212;-68
2021/01/06 04:01:51;;;;;;;16.10;11.40;;;;;;;4.62;100.00;97171.84;5092261;28;20204;-68
2021/01/06 04:04:22;;;;;;;13.97;10.07;;;;;;;4.78;100.00;97170.22;5091960;28;20209;-68
2021/01/06 04:06:57;;;;;;;15.13;10.50;;;;;;;4.84;100.00;97177.13;5091917;28;20264;-68
2021/01/06 04:09:38;;;;;;;14.27;10.40;;;;;;;4.84;100.00;97168.91;5092446;28;20211;-68
2021/01/06 04:12:12;;;;;;;17.27;11.30;;;;;;;4.80;100.00;97166.03;5078065;28;20212;-68
2021/01/06 04:14:39;;;;;;;15.37;10.33;;;;;;;4.82;100.00;97168.44;5071080;28;20299;-69
2021/01/06 04:17:19;;;;;;;14.53;10.77;;;;;;;4.71;100.00;97169.91;5071188;28;20233;-68
2021/01/06 04:19:48;;;;;;;16.50;10.77;;;;;;;4.76;100.00;97169.75;5071773;28;20214;-68
2021/01/06 04:22:20;;;;;;;15.10;10.33;;;;;;;4.76;100.00;97167.03;5086719;28;20609;-68
2021/01/06 04:24:46;;;;;;;14.03;10.30;;;;;;;4.70;100.00;97160.09;5091339;28;20236;-68
2021/01/06 04:27:18;;;;;;;15.03;9.33;;;;;;;4.67;100.00;97155.31;5091115;28;20315;-68
2021/01/06 04:29:45;;;;;;;13.73;10.13;;;;;;;4.69;100.00;97153.06;5091752;28;20580;-68
2021/01/06 04:32:11;;;;;;;16.37;10.33;;;;;;;4.76;100.00;97154.13;5091720;28;20208;-68
2021/01/06 04:34:37;;;;;;;12.83;9.63;;;;;;;4.75;100.00;97149.81;5090854;28;20669;-68
2021/01/06 04:37:03;;;;;;;14.80;9.83;;;;;;;4.81;100.00;97150.44;5090913;28;20228;-69
2021/01/06 04:39:29;;;;;;;13.83;9.83;;;;;;;4.73;100.00;97154.78;5091324;28;20209;-68
2021/01/06 04:42:02;;;;;;;12.20;9.43;;;;;;;4.72;100.00;97150.47;5090414;28;20204;-69
2021/01/06 04:44:44;;;;;;;14.73;9.77;;;;;;;4.70;100.00;97146.44;5090885;28;20244;-68
2021/01/06 04:47:41;;;;;;;12.17;8.97;;;;;;;4.79;100.00;97149.97;5090904;28;20304;-68
2021/01/06 04:50:34;;;;;;;14.07;9.80;;;;;;;4.73;100.00;97146.59;5086601;28;20262;-68
2021/01/06 04:53:32;;;;;;;13.67;9.13;;;;;;;4.74;100.00;97152.88;5091461;28;20320;-68
2021/01/06 04:56:17;;;;;;;14.33;9.13;;;;;;;4.70;100.00;97140.97;5090472;28;20246;-68
2021/01/06 04:58:59;;;;;;;12.63;9.80;;;;;;;4.53;100.00;97141.00;5091358;28;20614;-70
2021/01/06 05:01:46;;;;;;;14.33;9.50;;;;;;;4.65;100.00;97143.88;5091425;28;20295;-69
2021/01/06 05:04:26;;;;;;;13.60;9.73;;;;;;;4.59;100.00;97142.44;5090724;28;20211;-70
2021/01/06 05:07:01;;;;;;;14.27;9.77;;;;;;;4.62;100.00;97142.59;5089171;28;20303;-69
2021/01/06 05:10:00;;;;;;;18.43;10.03;;;;;;;4.73;100.00;97145.78;5091173;28;20235;-69
2021/01/06 05:12:55;;;;;;;13.80;10.17;;;;;;;4.57;100.00;97140.03;5073542;28;20256;-70
2021/01/06 05:15:40;;;;;;;12.90;9.60;;;;;;;4.72;100.00;97136.00;5069123;28;20204;-68
2021/01/06 05:18:06;;;;;;;14.80;9.60;;;;;;;4.63;100.00;97137.94;5070682;28;20225;-68
2021/01/06 05:20:33;;;;;;;12.83;8.97;;;;;;;4.65;100.00;97146.63;5071724;28;20235;-68
2021/01/06 05:23:05;;;;;;;16.90;9.17;;;;;;;4.47;100.00;97143.06;5089552;28;20204;-69
2021/01/06 05:25:34;;;;;;;12.10;9.77;;;;;;;4.43;100.00;97146.78;5090104;28;20299;-68
2021/01/06 05:28:01;;;;;;;13.17;9.77;;;;;;;4.58;100.00;97147.09;5090752;28;20220;-68
2021/01/06 05:30:34;;;;;;;16.30;9.90;;;;;;;4.66;100.00;97151.75;5090808;28;20633;-69
2021/01/06 05:33:06;;;;;;;12.23;9.60;;;;;;;4.52;100.00;97155.78;5089360;28;20676;-69
2021/01/06 05:35:39;;;;;;;12.77;9.37;;;;;;;4.64;100.00;97153.19;5090361;28;20715;-68
2021/01/06 05:38:05;;;;;;;13.70;9.60;;;;;;;4.63;100.00;97157.06;5090623;28;20336;-69
2021/01/06 05:40:34;;;;;;;14.10;9.50;;;;;;;4.65;100.00;97154.81;5091102;28;20232;-69
2021/01/06 05:43:07;;;;;;;12.50;9.50;;;;;;;4.68;100.00;97159.63;5090670;28;20247;-68
2021/01/06 05:45:38;;;;;;;12.27;9.83;;;;;;;4.57;100.00;97158.34;5090382;28;20283;-68
2021/01/06 05:48:17;;;;;;;15.03;10.67;;;;;;;4.58;100.00;97155.28;5090526;28;20232;-68
2021/01/06 05:50:52;;;;;;;12.03;9.27;;;;;;;4.50;100.00;97153.38;5090645;28;20243;-68
2021/01/06 05:53:36;;;;;;;14.07;9.77;;;;;;;4.42;100.00;97156.09;5090384;28;20281;-68
2021/01/06 05:56:31;;;;;;;14.33;9.57;;;;;;;4.50;100.00;97153.38;5088912;28;20219;-68
2021/01/06 05:59:11;;;;;;;12.93;9.10;;;;;;;4.54;100.00;97148.88;5082239;28;21002;-68
2021/01/06 06:01:52;;;;;;;13.00;9.30;;;;;;;4.49;100.00;97146.28;5090529;28;20662;-68
2021/01/06 06:04:47;;;;;;;13.33;9.43;;;;;;;4.36;100.00;97151.94;5084587;28;20239;-68
2021/01/06 06:07:13;;;;;;;12.07;9.37;;;;;;;4.38;100.00;97152.44;5082768;28;20233;-68
2021/01/06 06:09:47;;;;;;;14.13;9.63;;;;;;;4.44;100.00;97153.84;5090265;28;20295;-70
2021/01/06 06:12:22;;;;;;;13.83;9.90;;;;;;;4.34;100.00;97148.72;5074868;28;20207;-68
2021/01/06 06:15:13;;;;;;;12.53;9.43;;;;;;;4.23;100.00;97152.91;5068963;28;20200;-68
2021/01/06 06:18:02;;;;;;;11.57;8.40;;;;;;;4.38;100.00;97146.97;5069287;28;20583;-68
2021/01/06 06:20:54;;;;;;;11.53;8.90;;;;;;;4.48;100.00;97143.91;5073628;28;20294;-68
2021/01/06 06:23:38;;;;;;;11.73;9.07;;;;;;;4.51;100.00;97152.25;5093859;28;20261;-67
2021/01/06 06:26:25;;;;;;;13.77;9.60;;;;;;;4.21;100.00;97153.22;5093725;28;20204;-68
2021/01/06 06:29:21;;;;;;;12.03;8.97;;;;;;;4.33;100.00;97155.28;5093154;28;20200;-70
2021/01/06 06:31:56;;;;;;;10.70;8.67;;;;;;;4.27;100.00;97151.13;5093948;28;20212;-70
2021/01/06 06:34:29;;;;;;;11.27;9.40;;;;;;;4.10;100.00;97160.94;5093650;28;20224;-68
2021/01/06 06:37:22;;;;;;;14.23;9.20;;;;;;;4.21;100.00;97160.59;5093625;28;20256;-68
2021/01/06 06:40:11;;;;;;;13.33;8.53;;;;;;;4.34;100.00;97162.38;5092826;28;20682;-68
2021/01/06 06:42:54;;;;;;;10.97;8.23;;;;;;;4.41;100.00;97155.31;5093631;28;20201;-68
2021/01/06 06:45:28;;;;;;;13.27;9.30;;;;;;;4.28;100.00;97155.47;5093215;28;20868;-68
2021/01/06 06:48:17;;;;;;;14.57;8.90;;;;;;;4.34;100.00;97155.00;5093573;28;20258;-69
2021/01/06 06:50:47;;;;;;;12.30;8.73;;;;;;;4.32;100.00;97159.16;5093388;28;20200;-68
2021/01/06 06:53:38;;;;;;;12.77;9.00;;;;;;;4.37;100.00;97159.00;5093528;28;20800;-69
2021/01/06 06:56:31;;;;;;;12.70;9.23;;;;;;;4.48;100.00;97165.75;5091779;28;20209;-69
2021/01/06 06:59:05;;;;;;;13.37;9.23;;;;;;;4.48;100.00;97172.03;5093521;28;20209;-69
2021/01/06 07:01:40;;;;;;;11.23;8.87;;;;;;;4.40;100.00;97177.50;5093747;28;20208;-69
2021/01/06 07:04:34;;;;;;;12.83;8.87;;;;;;;4.34;100.00;97167.84;5092958;28;20610;-68
2021/01/06 07:07:02;;;;;;;13.70;8.50;;;;;;;4.35;100.00;97183.09;5090283;28;20229;-69
2021/01/06 07:09:34;;;;;;;15.73;9.00;;;;;;;4.33;100.00;97177.94;5093163;28;20266;-69
2021/01/06 07:12:12;;;;;;;11.40;8.67;;;;;;;4.42;100.00;97175.22;5084674;28;20209;-68
2021/01/06 07:14:59;;;;;;;10.90;8.27;;;;;;;4.32;100.00;97179.09;5091588;28;20269;-68
2021/01/06 07:17:35;;;;;;;10.13;8.00;;;;;;;4.19;100.00;97185.50;5092818;28;20227;-68
2021/01/06 07:20:09;;;;;;;13.40;8.40;;;;;;;4.20;100.00;97189.03;5093423;28;20203;-68
2021/01/06 07:22:51;;;;;;;11.27;8.63;;;;;;;4.37;100.00;97183.56;5093175;28;20677;-69
2021/01/06 07:25:17;;;;;;;11.47;8.13;;;;;;;4.40;100.00;97182.94;5092855;28;20207;-70
2021/01/06 07:27:46;;;;;;;10.90;8.73;;;;;;;4.37;100.00;97181.66;5092566;28;20277;-69
2021/01/06 07:30:31;;;;;;;15.70;9.20;;;;;;;4.32;100.00;97195.47;5092708;28;20295;-69
2021/01/06 07:32:59;;;;;;;10.40;8.20;;;;;;;4.41;100.00;97198.19;5092673;28;20320;-69
2021/01/06 07:35:27;;;;;;;10.17;7.60;;;;;;;4.49;100.00;97195.47;5092137;28;20590;-69
2021/01/06 07:37:59;;;;;;;10.40;7.93;;;;;;;4.38;100.00;97204.31;5092338;28;20580;-69
2021/01/06 07:40:37;;;;;;;11.77;8.10;;;;;;;4.51;100.00;97195.13;5091760;28;20208;-69
2021/01/06 07:43:06;;;;;;;10.07;8.27;;;;;;;4.37;100.00;97191.75;5092322;28;20283;-69
2021/01/06 07:45:52;;;;;;;9.33;7.63;;;;;;;4.31;100.00;97198.50;5086170;28;20201;-69
2021/01/06 07:48:40;;;;;;;12.27;8.10;;;;;;;4.43;100.00;97201.41;5072334;28;20239;-69
2021/01/06 07:51:25;;;;;;;12.40;8.03;;;;;;;4.50;100.00;97190.81;5071206;28;20300;-68
2021/01/06 07:54:12;;;;;;;10.03;7.10;;;;;;;4.51;100.00;97195.13;5071846;28;20749;-67
2021/01/06 07:57:09;;;;;;;9.27;7.40;;;;;;;4.51;100.00;97195.94;5087247;28;20277;-68
2021/01/06 07:59:44;;;;;;;9.60;7.07;;;;;;;4.25;100.00;97197.06;5092013;28;20298;-68
2021/01/06 08:02:19;;;;;;;9.17;7.43;;;;;;;4.32;100.00;97198.19;5092149;28;20208;-68
2021/01/06 08:04:54;;;;;;;9.73;7.33;;;;;;;4.35;100.00;97200.28;5088648;28;20251;-68
2021/01/06 08:07:22;;;;;;;9.43;7.70;;;;;;;4.36;100.00;97204.59;5091575;28;20263;-69
2021/01/06 08:09:49;;;;;;;10.40;7.30;;;;;;;4.47;100.00;97199.66;5090801;28;20627;-68
2021/01/06 08:12:26;;;;;;;10.10;6.77;;;;;;;4.40;100.00;97196.59;5076611;28;20205;-67
2021/01/06 08:15:19;;;;;;;8.77;6.87;;;;;;;4.36;100.00;97198.38;5071237;28;20232;-68
2021/01/06 08:18:02;;;;;;;10.80;7.50;;;;;;;4.56;100.00;97198.50;5071272;28;20229;-67
2021/01/06 08:20:35;;;;;;;8.53;6.80;;;;;;;4.61;100.00;97194.81;5071978;28;20292;-67
2021/01/06 08:23:16;;;;;;;9.63;7.60;;;;;;;4.37;100.00;97191.75;5091846;28;20512;-67
2021/01/06 08:26:10;;;;;;;10.60;7.67;;;;;;;4.59;100.00;97199.81;5090506;28;20281;-68
2021/01/06 08:28:36;;;;;;;10.30;7.47;;;;;;;4.22;100.00;97208.59;5090688;28;20670;-68
2021/01/06 08:31:14;;;;;;;9.10;7.30;;;;;;;4.42;100.00;97213.44;5091829;28;20219;-69
2021/01/06 08:33:56;;;;;;;10.70;7.83;;;;;;;4.49;100.00;97206.38;5090601;28;20303;-69
2021/01/06 08:36:36;;;;;;;8.73;7.03;;;;;;;4.47;100.00;97207.84;5072856;28;20272;-68
2021/01/06 08:39:20;;;;;;;9.13;7.53;;;;;;;4.70;100.00;97201.91;5091139;28;20236;-69
2021/01/06 08:41:48;;;;;;;9.43;7.70;;;;;;;4.54;100.00;97203.53;5090872;28;20200;-70
2021/01/06 08:44:35;;;;;;;9.80;7.30;;;;;;;4.48;100.00;97203.97;5089593;28;20204;-68
2021/01/06 08:47:05;;;;;;;9.77;8.03;;;;;;;4.29;100.00;97198.03;5088327;28;20259;-68
2021/01/06 08:49:35;;;;;;;9.63;7.27;;;;;;;4.44;100.00;97205.75;5088120;28;20277;-68
2021/01/06 08:52:21;;;;;;;9.80;6.93;;;;;;;4.48;100.00;97198.53;5089712;28;20281;-68
2021/01/06 08:55:04;;;;;;;10.00;7.60;;;;;;;4.54;100.00;97197.25;5088327;28;20288;-67
2021/01/06 08:57:33;;;;;;;10.33;7.27;;;;;;;4.84;100.00;97196.25;5087739;28;20244;-68
2021/01/06 09:00:26;;;;;;;10.03;7.07;;;;;;;5.03;100.00;97196.72;5089256;28;20292;-69
2021/01/06 09:02:55;;;;;;;9.73;7.93;;;;;;;5.05;100.00;97199.94;5090413;28;20204;-68
2021/01/06 09:05:46;;;;;;;9.57;7.43;;;;;;;5.11;100.00;97202.16;5081555;28;20250;-68
2021/01/06 09:08:30;;;;;;;10.23;7.77;;;;;;;5.15;100.00;97202.31;5087921;28;20220;-68
2021/01/06 09:11:24;;;;;;;7.87;6.93;;;;;;;4.91;100.00;97210.22;5085723;28;20284;-66
2021/01/06 09:13:59;;;;;;;8.30;6.77;;;;;;;5.07;100.00;97203.16;5068280;28;20782;-66
2021/01/06 09:16:38;;;;;;;11.17;8.27;;;;;;;4.95;100.00;97214.72;5068780;28;20795;-66
2021/01/06 09:19:42;;;;;;;9.43;7.63;;;;;;;4.59;100.00;97213.47;5074592;28;20211;-70
2021/01/06 09:22:12;;;;;;;9.83;7.53;;;;;;;4.37;100.00;97222.63;5072156;28;20218;-67
2021/01/06 09:24:41;;;;;;;11.67;7.17;;;;;;;5.01;100.00;97218.91;5088617;28;20201;-67
2021/01/06 09:27:39;;;;;;;11.20;7.60;;;;;;;5.00;100.00;97216.47;5088357;28;20220;-67
2021/01/06 09:30:22;;;;;;;8.70;7.23;;;;;;;4.99;100.00;97215.69;5089283;28;20228;-67
2021/01/06 09:32:53;;;;;;;9.30;7.17;;;;;;;5.04;100.00;97221.00;5076970;28;20319;-68
2021/01/06 09:35:25;;;;;;;8.17;7.23;;;;;;;5.22;100.00;97216.28;5075034;28;20205;-67
2021/01/06 09:38:30;;;;;;;10.63;7.70;;;;;;;5.14;100.00;97222.59;5089855;28;20225;-67
2021/01/06 09:41:01;;;;;;;9.30;6.93;;;;;;;5.07;100.00;97225.03;5081076;28;20258;-68
2021/01/06 09:43:36;;;;;;;8.87;7.57;;;;;;;5.12;100.00;97219.38;5069470;28;20237;-69
2021/01/06 09:46:14;;;;;;;9.50;7.97;;;;;;;5.00;100.00;97219.22;5068463;28;20302;-69
2021/01/06 09:48:44;;;;;;;9.00;6.97;;;;;;;4.98;100.00;97221.50;5069280;28;20300;-68
2021/01/06 09:51:16;;;;;;;10.17;6.70;;;;;;;4.73;100.00;97230.50;5087665;28;20721;-68
2021/01/06 09:53:43;;;;;;;9.73;7.40;;;;;;;4.89;100.00;97231.63;5088595;28;20315;-66
2021/01/06 09:56:15;;;;;;;10.23;7.87;;;;;;;5.04;100.00;97229.19;5092887;28;20208;-66
2021/01/06 09:58:42;;;;;;;9.47;7.43;;;;;;;5.07;100.00;97235.97;5093824;28;20246;-67
2021/01/06 10:01:18;;;;;;;8.43;7.07;;;;;;;5.18;100.00;97231.75;5076666;28;20214;-67
2021/01/06 10:03:51;;;;;;;7.87;7.03;;;;;;;5.23;100.00;97234.31;5092777;28;20258;-68
2021/01/06 10:06:38;;;;;;;8.47;7.13;;;;;;;5.09;100.00;97228.25;5091403;28;20224;-68
2021/01/06 10:09:29;;;;;;;10.13;7.80;;;;;;;5.09;100.00;97237.22;5085094;28;20208;-69
2021/01/06 10:12:16;;;;;;;9.50;8.03;;;;;;;5.06;100.00;97223.41;5093221;28;20253;-68
2021/01/06 10:14:57;;;;;;;11.87;7.63;;;;;;;5.27;100.00;97226.25;5092650;28;20216;-68
2021/01/06 10:17:50;;;;;;;10.40;7.50;;;;;;;5.18;100.00;97218.88;5092727;28;20256;-68
2021/01/06 10:20:30;;;;;;;9.70;7.63;;;;;;;5.19;100.00;97219.69;5079786;28;20203;-68
2021/01/06 10:23:09;;;;;;;8.47;7.53;;;;;;;5.22;100.00;97215.50;5088446;28;20224;-68
2021/01/06 10:25:45;;;;;;;8.97;7.47;;;;;;;5.17;100.00;97216.47;5086555;28;20265;-67
2021/01/06 10:28:20;;;;;;;8.17;7.20;;;;;;;5.07;100.00;97211.34;5093057;28;20224;-67
2021/01/06 10:31:01;;;;;;;10.17;7.57;;;;;;;5.25;100.00;97214.84;5074598;28;20287;-69
2021/01/06 10:33:29;;;;;;;10.27;7.77;;;;;;;5.07;100.00;97209.41;5074257;28;20304;-68
2021/01/06 10:36:41;;;;;;;9.17;8.10;;;;;;;5.35;100.00;97214.47;5091269;28;20501;-69
2021/01/06 10:39:21;;;;;;;8.77;7.87;;;;;;;5.08;100.00;97211.03;5093871;28;20280;-68
2021/01/06 10:41:58;;;;;;;9.23;8.00;;;;;;;5.07;100.00;97212.13;5093324;28;20306;-68
2021/01/06 10:44:52;;;;;;;9.23;8.17;;;;;;;5.28;100.00;97206.78;5093313;28;20253;-66
2021/01/06 10:47:30;;;;;;;10.53;8.40;;;;;;;4.95;100.00;97203.00;5082932;28;20311;-66
2021/01/06 10:50:17;;;;;;;12.13;7.93;;;;;;;4.95;100.00;97198.34;5092428;28;20238;-67
2021/01/06 10:53:15;;;;;;;9.77;8.23;;;;;;;5.15;100.00;97197.66;5093573;28;20304;-66
2021/01/06 10:55:56;;;;;;;10.73;8.03;;;;;;;4.99;100.00;97198.50;5093485;28;20291;-66
2021/01/06 10:58:35;;;;;;;9.10;7.73;;;;;;;5.15;100.00;97189.44;5095063;28;20287;-67
2021/01/06 11:01:10;;;;;;;9.37;8.27;;;;;;;5.05;100.00;97197.19;5093267;28;20644;-69
2021/01/06 11:03:52;;;;;;;10.03;7.80;;;;;;;5.06;100.00;97193.31;5091063;28;20311;-68
2021/01/06 11:06:36;;;;;;;9.33;8.20;;;;;;;5.00;100.00;97194.59;5091719;28;20235;-68
2021/01/06 11:09:30;;;;;;;8.50;7.30;;;;;;;5.28;100.00;97192.31;5092621;28;20669;-69
2021/01/06 11:12:33;;;;;;;9.17;7.80;;;;;;;5.48;100.00;97192.41;5092513;28;20288;-68
2021/01/06 11:15:25;;;;;;;10.33;7.57;;;;;;;5.38;100.00;97189.22;5091364;28;20207;-67
2021/01/06 11:18:12;;;;;;;9.00;7.67;;;;;;;4.79;100.00;97183.56;5092482;28;20311;-67
2021/01/06 11:20:39;;;;;;;9.47;7.80;;;;;;;5.16;100.00;97193.00;5092900;28;20200;-67
2021/01/06 11:23:28;;;;;;;9.90;8.00;;;;;;;5.05;100.00;97189.00;5092250;28;20207;-67
2021/01/06 11:26:00;;;;;;;11.53;8.23;;;;;;;5.05;100.00;97187.03;5091284;28;20312;-68
2021/01/06 11:28:42;;;;;;;12.20;8.03;;;;;;;5.08;100.00;97185.59;5091488;28;20200;-68
2021/01/06 11:31:18;;;;;;;9.50;8.03;;;;;;;5.13;100.00;97188.16;5092333;28;20209;-70
2021/01/06 11:33:56;;;;;;;9.17;7.93;;;;;;;5.21;100.00;97192.00;5091354;28;20578;-71
2021/01/06 11:36:35;;;;;;;11.73;8.27;;;;;;;5.20;100.00;97196.66;5091184;28;20231;-71
2021/01/06 11:39:05;;;;;;;9.53;7.90;;;;;;;5.10;100.00;97199.75;5092508;28;20287;-71
2021/01/06 11:41:34;;;;;;;13.27;7.60;;;;;;;5.04;100.00;97196.38;5090974;28;20262;-71
2021/01/06 11:44:06;;;;;;;9.93;7.23;;;;;;;4.85;100.00;97195.13;5091029;28;20673;-71
2021/01/06 11:46:50;;;;;;;8.00;7.20;;;;;;;5.06;100.00;97194.13;5090946;28;20312;-71
2021/01/06 11:49:43;;;;;;;8.93;7.53;;;;;;;4.76;100.00;97189.66;5091132;28;20254;-70
2021/01/06 11:52:30;;;;;;;11.30;7.93;;;;;;;4.79;100.00;97188.22;5091586;28;20250;-71
2021/01/06 11:55:29;;;;;;;9.07;7.60;;;;;;;5.00;100.00;97186.41;5089223;28;20647;-68
2021/01/06 11:57:55;;;;;;;8.30;6.60;;;;;;;5.07;100.00;97189.47;5089780;28;20258;-68
2021/01/06 12:00:46;;;;;;;9.93;6.43;;;;;;;5.05;100.00;97186.25;5091755;28;20208;-71
2021/01/06 12:03:24;;;;;;;8.90;7.10;;;;;;;4.86;100.00;97183.06;5091058;28;20236;-71
2021/01/06 12:06:08;;;;;;;10.90;6.37;;;;;;;4.90;100.00;97176.63;5091082;28;20601;-68
2021/01/06 12:09:13;;;;;;;11.77;7.10;;;;;;;4.96;100.00;97183.53;5091307;28;20204;-70
2021/01/06 12:11:57;;;;;;;10.13;6.80;;;;;;;4.95;100.00;97168.25;5091446;28;20258;-70
2021/01/06 12:14:42;;;;;;;9.43;7.07;;;;;;;4.91;100.00;97180.16;5090465;28;20224;-71
2021/01/06 12:17:08;;;;;;;8.60;6.70;;;;;;;4.94;100.00;97176.78;5090044;28;20274;-68
2021/01/06 12:19:47;;;;;;;8.20;6.10;;;;;;;4.91;100.00;97171.97;5091500;28;20254;-69
2021/01/06 12:22:16;;;;;;;7.97;6.40;;;;;;;4.65;100.00;97173.94;5089635;28;20212;-68
2021/01/06 12:24:53;;;;;;;7.17;5.77;;;;;;;4.77;100.00;97179.53;5088869;28;20292;-67
2021/01/06 12:27:37;;;;;;;8.60;6.10;;;;;;;4.70;100.00;97176.50;5089736;28;20227;-68
2021/01/06 12:30:10;;;;;;;7.67;5.97;;;;;;;4.69;100.00;97170.22;5090883;28;20208;-68
2021/01/06 12:33:10;;;;;;;7.63;5.90;;;;;;;4.58;100.00;97165.44;5090986;28;20217;-68
2021/01/06 12:35:40;;;;;;;7.73;6.30;;;;;;;4.29;100.00;97182.44;5084507;28;20741;-68
2021/01/06 12:38:26;;;;;;;9.07;6.00;;;;;;;4.71;100.00;97170.72;5084760;28;20236;-69
2021/01/06 12:41:28;;;;;;;7.73;5.90;;;;;;;4.85;100.00;97173.28;5081194;28;20235;-69
2021/01/06 12:43:57;;;;;;;9.13;6.60;;;;;;;4.71;100.00;97178.09;5043098;28;20689;-69